createdAt,value
2019-05-10T00:00:03.587Z,10.7
2019-05-10T00:05:03.579Z,10.6
2019-05-10T00:10:03.567Z,10.6
2019-05-10T00:15:03.590Z,10.7
2019-05-10T00:20:03.597Z,10.8
2019-05-10T00:25:04.877Z,10.9
2019-05-10T00:30:03.587Z,10.9
2019-05-10T00:35:03.589Z,11
2019-05-10T00:40:03.600Z,11
2019-05-10T00:45:03.659Z,11.1
2019-05-10T00:50:03.591Z,11.2
2019-05-10T00:55:17.670Z,11.2
2019-05-10T01:00:03.602Z,11.3
2019-05-10T01:05:03.608Z,11.3
2019-05-10T01:10:03.602Z,11.3
2019-05-10T01:15:03.612Z,11.3
2019-05-10T01:20:03.614Z,11.3
2019-05-10T01:25:03.618Z,11.3
2019-05-10T01:30:03.631Z,11.3
2019-05-10T01:35:03.622Z,11.3
2019-05-10T01:40:03.634Z,11.3
2019-05-10T01:45:03.636Z,11.3
2019-05-10T01:50:03.580Z,11.3
2019-05-10T01:55:03.629Z,11.3
2019-05-10T02:00:03.647Z,11.4
2019-05-10T02:05:03.654Z,11.4
2019-05-10T02:10:03.650Z,11.5
2019-05-10T02:15:03.648Z,11.5
2019-05-10T02:20:03.641Z,11.5
2019-05-10T02:25:03.665Z,11.6
2019-05-10T02:30:03.647Z,11.6
2019-05-10T02:35:03.690Z,11.6
2019-05-10T02:40:03.674Z,11.7
2019-05-10T02:45:03.684Z,11.7
2019-05-10T02:50:03.648Z,11.8
2019-05-10T02:55:03.667Z,11.7
2019-05-10T03:00:03.679Z,11.8
2019-05-10T03:05:03.702Z,11.8
2019-05-10T03:10:03.669Z,11.8
2019-05-10T03:15:03.672Z,11.8
2019-05-10T03:20:03.666Z,11.8
2019-05-10T03:25:03.674Z,11.8
2019-05-10T03:30:03.678Z,11.8
2019-05-10T03:35:03.700Z,11.8
2019-05-10T03:40:03.682Z,11.7
2019-05-10T03:45:03.684Z,11.7
2019-05-10T03:50:03.716Z,11.6
2019-05-10T03:55:03.690Z,11.6
2019-05-10T04:00:03.697Z,11.6
2019-05-10T04:05:03.694Z,11.5
2019-05-10T04:10:03.761Z,11.5
2019-05-10T04:15:03.707Z,11.5
2019-05-10T04:20:03.715Z,11.5
2019-05-10T04:25:03.701Z,11.6
2019-05-10T04:30:03.708Z,11.6
2019-05-10T04:35:03.713Z,11.6
2019-05-10T04:40:03.725Z,11.8
2019-05-10T04:45:03.743Z,11.8
2019-05-10T04:50:03.728Z,11.9
2019-05-10T04:55:03.719Z,11.9
2019-05-10T05:00:03.733Z,12
2019-05-10T05:05:03.737Z,12.1
2019-05-10T05:10:03.751Z,12.1
2019-05-10T05:15:03.729Z,12.1
2019-05-10T05:20:03.741Z,12.1
2019-05-10T05:25:03.889Z,12.1
2019-05-10T05:30:03.734Z,12.1
2019-05-10T05:35:03.747Z,12.1
2019-05-10T05:40:04.095Z,12.2
2019-05-10T05:45:06.949Z,12.3
2019-05-10T05:50:04.986Z,12.3
2019-05-10T05:55:08.185Z,12.4
2019-05-10T06:00:06.636Z,12.5
2019-05-10T06:05:04.933Z,12.6
2019-05-10T06:10:03.752Z,12.7
2019-05-10T06:15:03.783Z,12.8
2019-05-10T06:20:05.850Z,12.8
2019-05-10T06:25:03.794Z,12.9
2019-05-10T06:30:03.779Z,13
2019-05-10T06:35:03.814Z,13
2019-05-10T06:40:03.774Z,13.1
2019-05-10T06:45:12.322Z,13.2
2019-05-10T06:50:03.783Z,13.2
2019-05-10T06:55:04.036Z,13.4
2019-05-10T07:00:06.325Z,13.5
2019-05-10T07:05:03.813Z,13.7
2019-05-10T07:10:12.878Z,13.9
2019-05-10T07:15:05.426Z,14.4
2019-05-10T07:20:03.811Z,14.7
2019-05-10T07:25:04.724Z,15.1
2019-05-10T07:30:03.837Z,15.2
2019-05-10T07:35:03.745Z,15.6
2019-05-10T07:40:03.812Z,15.5
2019-05-10T07:45:03.801Z,15.6
2019-05-10T07:50:09.047Z,15.6
2019-05-10T07:55:03.812Z,15.4
2019-05-10T08:00:05.972Z,15.3
2019-05-10T08:05:04.773Z,15.2
2019-05-10T08:10:04.770Z,15.2
2019-05-10T08:15:03.837Z,15.1
2019-05-10T08:20:03.842Z,14.9
2019-05-10T08:25:03.839Z,14.8
2019-05-10T08:30:19.936Z,14.8
2019-05-10T08:35:05.367Z,14.8
2019-05-10T08:40:03.845Z,15.2
2019-05-10T08:45:08.602Z,15.9
2019-05-10T08:50:15.744Z,16.4
2019-05-10T08:55:04.273Z,16.6
2019-05-10T09:00:08.657Z,16.5
2019-05-10T09:05:04.473Z,16.5
2019-05-10T09:10:04.464Z,16.5
2019-05-10T09:15:09.347Z,16.4
2019-05-10T09:20:04.479Z,16.9
2019-05-10T09:25:04.426Z,17
2019-05-10T09:30:08.008Z,17
2019-05-10T09:35:07.461Z,17.4
2019-05-10T09:40:09.707Z,17.1
2019-05-10T09:45:04.517Z,17.2
2019-05-10T09:50:04.569Z,17.6
2019-05-10T09:55:09.976Z,17.8
2019-05-10T10:00:04.570Z,17.7
2019-05-10T10:05:04.623Z,17.6
2019-05-10T10:10:07.038Z,17.5
2019-05-10T10:15:04.594Z,17.5
2019-05-10T10:20:04.703Z,17
2019-05-10T10:25:07.157Z,16.6
2019-05-10T10:30:06.432Z,16.3
2019-05-10T10:35:04.683Z,16
2019-05-10T10:40:05.951Z,15.6
2019-05-10T10:45:04.681Z,15.3
2019-05-10T10:50:08.859Z,15.1
2019-05-10T10:55:05.509Z,15
2019-05-10T11:00:04.711Z,14.6
2019-05-10T11:05:04.725Z,14.3
2019-05-10T11:10:15.184Z,14.1
2019-05-10T11:15:04.717Z,14
2019-05-10T11:20:08.071Z,14.1
2019-05-10T11:25:09.368Z,14.3
2019-05-10T11:30:04.749Z,14.7
2019-05-10T11:35:05.465Z,15.1
2019-05-10T11:40:04.765Z,15.5
2019-05-10T11:45:04.744Z,15.7
2019-05-10T11:50:06.429Z,15.8
2019-05-10T11:55:04.771Z,16.3
2019-05-10T12:00:04.718Z,16.6
2019-05-10T12:05:12.001Z,16.9
2019-05-10T12:10:14.401Z,17
2019-05-10T12:15:04.998Z,17
2019-05-10T12:20:04.768Z,17.4
2019-05-10T12:25:23.146Z,17.3
2019-05-10T12:30:04.969Z,17.5
2019-05-10T12:35:04.921Z,17.7
2019-05-10T12:40:09.746Z,18.1
2019-05-10T12:45:04.832Z,18.4
2019-05-10T12:50:05.035Z,18.4
2019-05-10T12:55:04.748Z,18.3
2019-05-10T13:00:06.624Z,18.1
2019-05-10T13:05:04.944Z,18.1
2019-05-10T13:10:07.271Z,18.1
2019-05-10T13:15:04.988Z,18.4
2019-05-10T13:20:04.809Z,18.5
2019-05-10T13:25:04.828Z,18.6
2019-05-10T13:30:04.829Z,18.8
2019-05-10T13:35:04.808Z,18.8
2019-05-10T13:40:07.512Z,18.9
2019-05-10T13:45:04.814Z,19.1
2019-05-10T13:50:04.813Z,19.2
2019-05-10T13:55:05.065Z,19.2
2019-05-10T14:00:04.979Z,19.3
2019-05-10T14:05:04.830Z,19.4
2019-05-10T14:10:04.837Z,19.5
2019-05-10T14:15:09.068Z,19.5
2019-05-10T14:20:04.832Z,19.2
2019-05-10T14:25:04.836Z,19
2019-05-10T14:30:07.056Z,18.5
2019-05-10T14:35:04.867Z,17.9
2019-05-10T14:40:04.848Z,17.1
2019-05-10T14:45:04.868Z,16.5
2019-05-10T14:50:04.811Z,16
2019-05-10T14:55:05.052Z,15.7
2019-05-10T15:00:05.132Z,15.7
2019-05-10T15:05:08.618Z,15.5
2019-05-10T15:10:04.888Z,15.5
2019-05-10T15:15:04.870Z,15.6
2019-05-10T15:20:04.876Z,15.7
2019-05-10T15:25:04.875Z,15.7
2019-05-10T15:30:05.755Z,15.9
2019-05-10T15:35:07.840Z,16.2
2019-05-10T15:40:05.936Z,16.3
2019-05-10T15:45:11.252Z,16.2
2019-05-10T15:50:04.872Z,16.4
2019-05-10T15:55:04.892Z,16.4
2019-05-10T16:00:04.894Z,16.5
2019-05-10T16:05:22.214Z,16.6
2019-05-10T16:10:05.057Z,16.8
2019-05-10T16:15:05.111Z,16.9
2019-05-10T16:20:04.918Z,17
2019-05-10T16:25:04.922Z,16.9
2019-05-10T16:30:04.906Z,17
2019-05-10T16:35:12.351Z,17
2019-05-10T16:40:04.942Z,16.9
2019-05-10T16:45:05.078Z,17
2019-05-10T16:50:04.915Z,16.9
2019-05-10T16:55:05.401Z,16.9
2019-05-10T17:00:08.097Z,16.8
2019-05-10T17:05:09.494Z,16.8
2019-05-10T17:10:05.062Z,16.8
2019-05-10T17:15:04.940Z,16.8
2019-05-10T17:20:07.159Z,16.8
2019-05-10T17:25:05.358Z,16.8
2019-05-10T17:30:04.936Z,17
2019-05-10T17:35:06.611Z,19.8
2019-05-10T17:40:10.006Z,20.7
2019-05-10T17:45:04.944Z,21.1
2019-05-10T17:50:05.118Z,20.2
2019-05-10T17:55:05.172Z,18.7
2019-05-10T18:00:05.203Z,17.8
2019-05-10T18:05:08.100Z,17.3
2019-05-10T18:10:05.182Z,16.8
2019-05-10T18:15:05.197Z,16.3
2019-05-10T18:20:04.909Z,16.1
2019-05-10T18:25:04.953Z,15.6
2019-05-10T18:30:05.002Z,15.3
2019-05-10T18:35:12.937Z,15
2019-05-10T18:40:04.966Z,14.8
2019-05-10T18:45:04.962Z,14.4
2019-05-10T18:50:05.301Z,14.2
2019-05-10T18:55:05.133Z,13.9
2019-05-10T19:00:05.154Z,13.7
2019-05-10T19:05:04.981Z,13.5
2019-05-10T19:10:04.981Z,13.3
2019-05-10T19:15:08.523Z,13.1
2019-05-10T19:20:09.319Z,13
2019-05-10T19:25:11.445Z,12.9
2019-05-10T19:30:05.027Z,12.7
2019-05-10T19:35:05.002Z,12.5
2019-05-10T19:40:05.036Z,12.3
2019-05-10T19:45:05.037Z,12.2
2019-05-10T19:50:05.028Z,12.1
2019-05-10T19:55:05.006Z,12
2019-05-10T20:00:05.041Z,11.9
2019-05-10T20:05:05.387Z,11.7
2019-05-10T20:10:07.652Z,11.6
2019-05-10T20:15:05.414Z,11.5
2019-05-10T20:20:05.032Z,11.4
2019-05-10T20:25:05.527Z,11.3
2019-05-10T20:30:05.035Z,11.2
2019-05-10T20:35:05.032Z,11.1
2019-05-10T20:40:05.023Z,11
2019-05-10T20:45:07.840Z,10.9
2019-05-10T20:50:05.222Z,10.8
2019-05-10T20:55:05.036Z,10.7
2019-05-10T21:00:05.191Z,10.6
2019-05-10T21:05:05.038Z,10.5
2019-05-10T21:10:05.104Z,10.4
2019-05-10T21:15:05.053Z,10.3
2019-05-10T21:20:05.057Z,10.2
2019-05-10T21:25:05.275Z,10.2
2019-05-10T21:30:05.057Z,10.1
2019-05-10T21:35:05.121Z,10.1
2019-05-10T21:40:05.004Z,10
2019-05-10T21:45:05.062Z,10
2019-05-10T21:50:05.080Z,9.9
2019-05-10T21:55:05.088Z,9.8
2019-05-10T22:00:05.070Z,9.8
2019-05-10T22:05:05.216Z,9.7
2019-05-10T22:10:05.245Z,9.7
2019-05-10T22:15:05.094Z,9.6
2019-05-10T22:20:05.079Z,9.5
2019-05-10T22:25:05.089Z,9.5
2019-05-10T22:30:05.092Z,9.4
2019-05-10T22:35:05.332Z,9.4
2019-05-10T22:40:05.257Z,9.4
2019-05-10T22:45:05.095Z,9.3
2019-05-10T22:50:05.093Z,9.2
2019-05-10T22:55:05.108Z,9.1
2019-05-10T23:00:05.108Z,9.1
2019-05-10T23:05:05.109Z,9
2019-05-10T23:10:05.106Z,8.9
2019-05-10T23:15:05.111Z,8.8
2019-05-10T23:20:05.100Z,8.7
2019-05-10T23:25:05.102Z,8.7
2019-05-10T23:30:05.099Z,8.7
2019-05-10T23:35:05.345Z,8.6
2019-05-10T23:40:05.118Z,8.7
2019-05-10T23:45:05.187Z,8.7
2019-05-10T23:50:05.078Z,8.7
2019-05-10T23:55:05.127Z,8.7
